sensor_id;sensor_type;location;lat;lon;timestamp;pressure;altitude;pressure_sealevel;temperature;humidity
24160;BME280;62385;41.594;23.808;2023-02-19T00:01:36;95950.88;;;3.52;63.96
24160;BME280;62385;41.594;23.808;2023-02-19T00:06:35;95946.53;;;2.94;66.09
24160;BME280;62385;41.594;23.808;2023-02-19T00:09:02;95941.00;;;3.09;66.26
24160;BME280;62385;41.594;23.808;2023-02-19T00:11:31;95924.94;;;3.36;65.02
24160;BME280;62385;41.594;23.808;2023-02-19T00:13:58;95933.28;;;3.30;65.21
24160;BME280;62385;41.594;23.808;2023-02-19T00:16:25;95919.72;;;3.69;64.16
24160;BME280;62385;41.594;23.808;2023-02-19T00:18:52;95917.84;;;3.71;63.73
24160;BME280;62385;41.594;23.808;2023-02-19T00:21:19;95921.38;;;3.48;64.05
24160;BME280;62385;41.594;23.808;2023-02-19T00:23:52;95913.66;;;3.47;64.51
24160;BME280;62385;41.594;23.808;2023-02-19T00:26:18;95916.38;;;3.56;64.26
24160;BME280;62385;41.594;23.808;2023-02-19T00:28:46;95920.97;;;3.19;65.41
24160;BME280;62385;41.594;23.808;2023-02-19T00:31:17;95915.19;;;3.03;65.17
24160;BME280;62385;41.594;23.808;2023-02-19T00:33:44;95914.13;;;3.52;64.17
24160;BME280;62385;41.594;23.808;2023-02-19T00:36:10;95920.75;;;3.22;64.84
24160;BME280;62385;41.594;23.808;2023-02-19T00:38:37;95903.63;;;3.52;64.12
24160;BME280;62385;41.594;23.808;2023-02-19T00:41:04;95908.00;;;3.40;64.72
24160;BME280;62385;41.594;23.808;2023-02-19T00:46:13;95911.59;;;2.93;65.82
24160;BME280;62385;41.594;23.808;2023-02-19T00:48:39;95910.13;;;3.24;65.83
24160;BME280;62385;41.594;23.808;2023-02-19T00:51:05;95905.63;;;3.48;64.68
24160;BME280;62385;41.594;23.808;2023-02-19T00:53:30;95902.91;;;3.61;63.98
24160;BME280;62385;41.594;23.808;2023-02-19T00:55:56;95905.66;;;3.59;64.30
24160;BME280;62385;41.594;23.808;2023-02-19T00:58:21;95913.16;;;3.31;65.54
24160;BME280;62385;41.594;23.808;2023-02-19T01:00:47;95906.13;;;3.53;64.62
24160;BME280;62385;41.594;23.808;2023-02-19T01:03:13;95910.69;;;3.05;65.60
24160;BME280;62385;41.594;23.808;2023-02-19T01:05:39;95906.31;;;3.17;65.58
24160;BME280;62385;41.594;23.808;2023-02-19T01:08:05;95919.25;;;3.07;65.80
24160;BME280;62385;41.594;23.808;2023-02-19T01:10:31;95895.56;;;3.09;65.70
24160;BME280;62385;41.594;23.808;2023-02-19T01:12:56;95889.47;;;2.73;66.19
24160;BME280;62385;41.594;23.808;2023-02-19T01:15:22;95892.50;;;2.80;67.28
24160;BME280;62385;41.594;23.808;2023-02-19T01:17:47;95876.25;;;3.21;65.26
24160;BME280;62385;41.594;23.808;2023-02-19T01:20:13;95871.53;;;2.91;66.34
24160;BME280;62385;41.594;23.808;2023-02-19T01:22:38;95866.69;;;2.63;67.15
24160;BME280;62385;41.594;23.808;2023-02-19T01:25:05;95865.50;;;2.67;67.38
24160;BME280;62385;41.594;23.808;2023-02-19T01:27:31;95866.59;;;2.75;66.78
24160;BME280;62385;41.594;23.808;2023-02-19T01:29:56;95864.81;;;2.65;67.40
24160;BME280;62385;41.594;23.808;2023-02-19T01:32:22;95855.00;;;3.02;66.21
24160;BME280;62385;41.594;23.808;2023-02-19T01:34:47;95845.63;;;3.21;65.36
24160;BME280;62385;41.594;23.808;2023-02-19T01:37:13;95845.72;;;3.09;65.91
24160;BME280;62385;41.594;23.808;2023-02-19T01:39:38;95851.22;;;3.06;65.67
24160;BME280;62385;41.594;23.808;2023-02-19T01:42:06;95849.22;;;3.43;65.15
24160;BME280;62385;41.594;23.808;2023-02-19T01:47:02;95847.19;;;3.57;64.11
24160;BME280;62385;41.594;23.808;2023-02-19T01:49:31;95842.88;;;3.79;62.90
24160;BME280;62385;41.594;23.808;2023-02-19T01:52:21;95854.47;;;3.65;63.90
24160;BME280;62385;41.594;23.808;2023-02-19T01:54:50;95849.81;;;3.46;64.05
24160;BME280;62385;41.594;23.808;2023-02-19T01:57:24;95851.97;;;3.63;63.62
24160;BME280;62385;41.594;23.808;2023-02-19T01:59:53;95860.41;;;3.45;64.36
24160;BME280;62385;41.594;23.808;2023-02-19T02:02:21;95866.63;;;3.44;64.01
24160;BME280;62385;41.594;23.808;2023-02-19T02:04:49;95863.25;;;3.08;65.80
24160;BME280;62385;41.594;23.808;2023-02-19T02:07:17;95861.13;;;3.13;65.64
24160;BME280;62385;41.594;23.808;2023-02-19T02:10:02;95866.06;;;2.94;66.27
24160;BME280;62385;41.594;23.808;2023-02-19T02:12:47;95867.81;;;2.83;66.44
24160;BME280;62385;41.594;23.808;2023-02-19T02:15:15;95859.44;;;3.23;65.61
24160;BME280;62385;41.594;23.808;2023-02-19T02:17:55;95863.75;;;2.78;66.15
24160;BME280;62385;41.594;23.808;2023-02-19T02:24:10;95858.44;;;2.91;65.58
24160;BME280;62385;41.594;23.808;2023-02-19T02:31:41;95846.97;;;2.22;67.82
24160;BME280;62385;41.594;23.808;2023-02-19T02:34:23;95843.50;;;1.98;68.99
24160;BME280;62385;41.594;23.808;2023-02-19T02:36:53;95834.91;;;2.20;67.77
24160;BME280;62385;41.594;23.808;2023-02-19T02:39:23;95833.16;;;2.44;67.43
24160;BME280;62385;41.594;23.808;2023-02-19T02:41:54;95838.63;;;2.17;68.45
24160;BME280;62385;41.594;23.808;2023-02-19T02:44:41;95836.84;;;2.53;67.05
24160;BME280;62385;41.594;23.808;2023-02-19T02:47:30;95836.75;;;2.54;67.09
24160;BME280;62385;41.594;23.808;2023-02-19T02:50:30;95839.91;;;2.36;67.34
24160;BME280;62385;41.594;23.808;2023-02-19T02:53:02;95846.06;;;2.58;67.41
24160;BME280;62385;41.594;23.808;2023-02-19T02:55:50;95835.25;;;2.74;66.82
24160;BME280;62385;41.594;23.808;2023-02-19T02:58:18;95842.47;;;2.94;65.80
24160;BME280;62385;41.594;23.808;2023-02-19T03:00:53;95835.03;;;2.42;67.23
24160;BME280;62385;41.594;23.808;2023-02-19T03:03:42;95845.34;;;2.56;67.32
24160;BME280;62385;41.594;23.808;2023-02-19T03:06:11;95852.44;;;2.78;66.73
24160;BME280;62385;41.594;23.808;2023-02-19T03:08:44;95856.44;;;2.60;66.85
24160;BME280;62385;41.594;23.808;2023-02-19T03:11:13;95845.38;;;2.67;66.54
24160;BME280;62385;41.594;23.808;2023-02-19T03:16:57;95843.34;;;2.36;67.30
24160;BME280;62385;41.594;23.808;2023-02-19T03:19:47;95850.63;;;2.20;68.44
24160;BME280;62385;41.594;23.808;2023-02-19T03:22:33;95841.38;;;2.03;69.61
24160;BME280;62385;41.594;23.808;2023-02-19T03:25:11;95838.78;;;2.27;68.81
24160;BME280;62385;41.594;23.808;2023-02-19T03:27:59;95838.41;;;2.44;68.15
24160;BME280;62385;41.594;23.808;2023-02-19T03:30:32;95842.59;;;2.58;67.94
24160;BME280;62385;41.594;23.808;2023-02-19T03:33:08;95856.50;;;2.47;68.01
24160;BME280;62385;41.594;23.808;2023-02-19T03:35:48;95852.81;;;2.26;68.44
24160;BME280;62385;41.594;23.808;2023-02-19T03:38:26;95852.13;;;2.11;69.65
24160;BME280;62385;41.594;23.808;2023-02-19T03:43:36;95866.47;;;2.42;68.58
24160;BME280;62385;41.594;23.808;2023-02-19T03:46:24;95861.31;;;2.99;67.11
24160;BME280;62385;41.594;23.808;2023-02-19T03:51:42;95864.53;;;3.03;66.48
24160;BME280;62385;41.594;23.808;2023-02-19T03:54:24;95868.56;;;2.96;66.75
24160;BME280;62385;41.594;23.808;2023-02-19T03:57:27;95870.03;;;2.65;67.42
24160;BME280;62385;41.594;23.808;2023-02-19T04:05:48;95879.69;;;2.41;68.09
24160;BME280;62385;41.594;23.808;2023-02-19T04:08:20;95875.56;;;2.49;68.17
24160;BME280;62385;41.594;23.808;2023-02-19T04:10:53;95884.59;;;2.45;68.13
24160;BME280;62385;41.594;23.808;2023-02-19T04:13:30;95890.00;;;2.31;68.74
24160;BME280;62385;41.594;23.808;2023-02-19T04:16:01;95879.91;;;2.14;69.01
24160;BME280;62385;41.594;23.808;2023-02-19T04:18:33;95881.69;;;2.13;69.18
24160;BME280;62385;41.594;23.808;2023-02-19T04:21:01;95875.00;;;2.09;69.39
24160;BME280;62385;41.594;23.808;2023-02-19T04:23:29;95885.56;;;1.71;69.63
24160;BME280;62385;41.594;23.808;2023-02-19T04:25:59;95873.56;;;1.56;69.91
24160;BME280;62385;41.594;23.808;2023-02-19T04:28:25;95870.94;;;1.44;71.22
24160;BME280;62385;41.594;23.808;2023-02-19T04:30:52;95874.66;;;1.77;70.31
24160;BME280;62385;41.594;23.808;2023-02-19T04:33:17;95858.41;;;1.49;70.81
24160;BME280;62385;41.594;23.808;2023-02-19T04:35:43;95872.94;;;1.40;71.31
24160;BME280;62385;41.594;23.808;2023-02-19T04:38:08;95871.47;;;1.49;70.55
24160;BME280;62385;41.594;23.808;2023-02-19T04:40:35;95865.28;;;1.50;70.55
24160;BME280;62385;41.594;23.808;2023-02-19T04:43:00;95866.03;;;1.52;70.35
24160;BME280;62385;41.594;23.808;2023-02-19T04:45:26;95865.41;;;1.48;70.52
24160;BME280;62385;41.594;23.808;2023-02-19T04:47:51;95872.56;;;1.70;69.40
24160;BME280;62385;41.594;23.808;2023-02-19T04:50:17;95864.88;;;1.43;70.15
24160;BME280;62385;41.594;23.808;2023-02-19T04:52:42;95860.44;;;1.69;69.73
24160;BME280;62385;41.594;23.808;2023-02-19T04:55:08;95863.00;;;1.94;68.90
24160;BME280;62385;41.594;23.808;2023-02-19T04:57:34;95858.16;;;2.01;68.81
24160;BME280;62385;41.594;23.808;2023-02-19T05:00:02;95875.31;;;1.68;69.87
24160;BME280;62385;41.594;23.808;2023-02-19T05:02:28;95874.38;;;1.69;69.82
24160;BME280;62385;41.594;23.808;2023-02-19T05:04:54;95876.53;;;1.88;69.29
24160;BME280;62385;41.594;23.808;2023-02-19T05:07:19;95889.56;;;2.01;68.85
24160;BME280;62385;41.594;23.808;2023-02-19T05:09:45;95900.16;;;2.36;67.43
24160;BME280;62385;41.594;23.808;2023-02-19T05:12:11;95893.94;;;2.13;67.60
24160;BME280;62385;41.594;23.808;2023-02-19T05:14:36;95897.78;;;2.20;67.97
24160;BME280;62385;41.594;23.808;2023-02-19T05:17:02;95907.28;;;1.97;68.72
24160;BME280;62385;41.594;23.808;2023-02-19T05:19:27;95897.72;;;2.09;68.54
24160;BME280;62385;41.594;23.808;2023-02-19T05:21:53;95904.00;;;2.19;68.21
24160;BME280;62385;41.594;23.808;2023-02-19T05:24:20;95907.00;;;1.89;69.16
24160;BME280;62385;41.594;23.808;2023-02-19T05:26:46;95918.28;;;2.02;68.68
24160;BME280;62385;41.594;23.808;2023-02-19T05:29:12;95921.50;;;2.06;68.38
24160;BME280;62385;41.594;23.808;2023-02-19T05:31:38;95928.00;;;2.00;68.23
24160;BME280;62385;41.594;23.808;2023-02-19T05:34:03;95915.78;;;2.24;67.62
24160;BME280;62385;41.594;23.808;2023-02-19T05:36:29;95926.59;;;2.20;67.82
24160;BME280;62385;41.594;23.808;2023-02-19T05:38:55;95922.56;;;2.03;67.60
24160;BME280;62385;41.594;23.808;2023-02-19T05:41:26;95929.84;;;1.49;69.73
24160;BME280;62385;41.594;23.808;2023-02-19T05:43:53;95928.19;;;1.23;70.85
24160;BME280;62385;41.594;23.808;2023-02-19T05:46:21;95932.03;;;1.80;69.88
24160;BME280;62385;41.594;23.808;2023-02-19T05:48:49;95927.44;;;1.71;70.51
24160;BME280;62385;41.594;23.808;2023-02-19T05:51:17;95929.75;;;1.38;72.07
24160;BME280;62385;41.594;23.808;2023-02-19T05:53:43;95927.97;;;1.51;71.52
24160;BME280;62385;41.594;23.808;2023-02-19T05:56:36;95940.56;;;2.08;70.56
24160;BME280;62385;41.594;23.808;2023-02-19T05:59:06;95937.72;;;2.71;68.60
24160;BME280;62385;41.594;23.808;2023-02-19T06:01:32;95936.22;;;2.56;68.92
24160;BME280;62385;41.594;23.808;2023-02-19T06:03:58;95938.06;;;2.66;68.63
24160;BME280;62385;41.594;23.808;2023-02-19T06:06:25;95940.63;;;2.55;70.23
24160;BME280;62385;41.594;23.808;2023-02-19T06:08:51;95942.03;;;3.07;68.45
24160;BME280;62385;41.594;23.808;2023-02-19T06:11:18;95940.75;;;3.92;65.83
24160;BME280;62385;41.594;23.808;2023-02-19T06:13:43;95939.09;;;4.13;65.17
24160;BME280;62385;41.594;23.808;2023-02-19T06:16:09;95946.84;;;4.14;64.73
24160;BME280;62385;41.594;23.808;2023-02-19T06:18:35;95952.22;;;4.24;64.52
24160;BME280;62385;41.594;23.808;2023-02-19T06:21:05;95961.41;;;4.18;64.48
24160;BME280;62385;41.594;23.808;2023-02-19T06:23:31;95956.03;;;3.87;66.00
24160;BME280;62385;41.594;23.808;2023-02-19T06:28:41;95971.06;;;3.62;66.21
24160;BME280;62385;41.594;23.808;2023-02-19T06:31:07;95969.59;;;3.47;66.47
24160;BME280;62385;41.594;23.808;2023-02-19T06:33:33;95964.19;;;3.38;67.13
24160;BME280;62385;41.594;23.808;2023-02-19T06:36:02;95960.56;;;3.62;65.87
24160;BME280;62385;41.594;23.808;2023-02-19T06:38:28;95969.63;;;3.69;66.25
24160;BME280;62385;41.594;23.808;2023-02-19T06:40:54;95960.72;;;3.26;67.84
24160;BME280;62385;41.594;23.808;2023-02-19T06:43:23;95963.38;;;3.48;67.20
24160;BME280;62385;41.594;23.808;2023-02-19T06:45:49;95949.84;;;3.88;66.25
24160;BME280;62385;41.594;23.808;2023-02-19T06:48:14;95941.69;;;4.24;64.39
24160;BME280;62385;41.594;23.808;2023-02-19T06:50:40;95943.25;;;4.38;63.87
24160;BME280;62385;41.594;23.808;2023-02-19T06:53:06;95933.19;;;4.32;64.38
24160;BME280;62385;41.594;23.808;2023-02-19T06:55:33;95936.84;;;4.62;63.23
24160;BME280;62385;41.594;23.808;2023-02-19T06:57:58;95950.59;;;4.66;62.93
24160;BME280;62385;41.594;23.808;2023-02-19T07:00:24;95947.56;;;4.82;62.43
24160;BME280;62385;41.594;23.808;2023-02-19T07:02:50;95941.91;;;4.86;62.75
24160;BME280;62385;41.594;23.808;2023-02-19T07:05:21;95938.03;;;5.01;62.63
24160;BME280;62385;41.594;23.808;2023-02-19T07:07:48;95937.84;;;5.14;62.69
24160;BME280;62385;41.594;23.808;2023-02-19T07:10:14;95938.69;;;5.35;60.31
24160;BME280;62385;41.594;23.808;2023-02-19T07:12:40;95943.13;;;5.55;59.83
24160;BME280;62385;41.594;23.808;2023-02-19T07:15:05;95942.69;;;5.92;59.54
24160;BME280;62385;41.594;23.808;2023-02-19T07:17:33;95943.69;;;6.00;58.33
24160;BME280;62385;41.594;23.808;2023-02-19T07:19:58;95942.03;;;5.99;59.35
24160;BME280;62385;41.594;23.808;2023-02-19T07:22:24;95949.63;;;5.93;60.92
24160;BME280;62385;41.594;23.808;2023-02-19T07:24:49;95943.00;;;5.78;60.93
24160;BME280;62385;41.594;23.808;2023-02-19T07:27:15;95945.25;;;5.62;61.52
24160;BME280;62385;41.594;23.808;2023-02-19T07:29:42;95945.06;;;5.95;60.97
24160;BME280;62385;41.594;23.808;2023-02-19T07:32:07;95939.84;;;6.05;60.29
24160;BME280;62385;41.594;23.808;2023-02-19T07:34:33;95924.94;;;6.24;59.63
24160;BME280;62385;41.594;23.808;2023-02-19T07:36:58;95930.94;;;5.96;60.04
24160;BME280;62385;41.594;23.808;2023-02-19T07:39:24;95926.91;;;6.32;59.04
24160;BME280;62385;41.594;23.808;2023-02-19T07:41:50;95936.38;;;6.44;59.52
24160;BME280;62385;41.594;23.808;2023-02-19T07:44:24;95926.22;;;5.99;59.84
24160;BME280;62385;41.594;23.808;2023-02-19T07:46:52;95926.09;;;6.41;59.09
24160;BME280;62385;41.594;23.808;2023-02-19T07:49:17;95924.09;;;6.92;57.82
24160;BME280;62385;41.594;23.808;2023-02-19T07:51:43;95923.69;;;7.35;56.88
24160;BME280;62385;41.594;23.808;2023-02-19T07:54:09;95926.34;;;7.35;56.87
24160;BME280;62385;41.594;23.808;2023-02-19T07:56:35;95921.31;;;6.94;57.47
24160;BME280;62385;41.594;23.808;2023-02-19T07:59:01;95909.22;;;7.39;56.48
24160;BME280;62385;41.594;23.808;2023-02-19T08:01:26;95915.59;;;7.47;55.93
24160;BME280;62385;41.594;23.808;2023-02-19T08:04:12;95907.91;;;7.63;55.92
24160;BME280;62385;41.594;23.808;2023-02-19T08:06:39;95898.41;;;7.89;55.68
24160;BME280;62385;41.594;23.808;2023-02-19T08:09:06;95902.41;;;8.03;54.42
24160;BME280;62385;41.594;23.808;2023-02-19T08:11:32;95885.47;;;8.23;53.90
24160;BME280;62385;41.594;23.808;2023-02-19T08:14:17;95881.81;;;8.33;54.65
24160;BME280;62385;41.594;23.808;2023-02-19T08:16:50;95883.22;;;8.28;55.16
24160;BME280;62385;41.594;23.808;2023-02-19T08:19:16;95883.66;;;8.23;56.23
24160;BME280;62385;41.594;23.808;2023-02-19T08:21:42;95889.91;;;8.22;56.47
24160;BME280;62385;41.594;23.808;2023-02-19T08:24:08;95877.59;;;8.41;55.84
24160;BME280;62385;41.594;23.808;2023-02-19T08:26:34;95884.38;;;8.53;56.19
24160;BME280;62385;41.594;23.808;2023-02-19T08:29:00;95876.53;;;8.61;55.07
24160;BME280;62385;41.594;23.808;2023-02-19T08:31:26;95890.88;;;8.31;56.54
24160;BME280;62385;41.594;23.808;2023-02-19T08:33:52;95882.94;;;7.94;57.94
24160;BME280;62385;41.594;23.808;2023-02-19T08:36:17;95881.81;;;7.97;59.04
24160;BME280;62385;41.594;23.808;2023-02-19T08:38:43;95879.78;;;8.18;57.33
24160;BME280;62385;41.594;23.808;2023-02-19T08:41:10;95882.63;;;7.70;58.20
24160;BME280;62385;41.594;23.808;2023-02-19T08:43:37;95884.88;;;7.92;57.91
24160;BME280;62385;41.594;23.808;2023-02-19T08:46:03;95874.34;;;8.19;57.30
24160;BME280;62385;41.594;23.808;2023-02-19T08:48:28;95867.91;;;8.31;56.70
24160;BME280;62385;41.594;23.808;2023-02-19T08:50:56;95867.41;;;8.18;56.58
24160;BME280;62385;41.594;23.808;2023-02-19T08:53:22;95853.78;;;8.41;56.23
24160;BME280;62385;41.594;23.808;2023-02-19T08:55:48;95861.66;;;8.23;56.44
24160;BME280;62385;41.594;23.808;2023-02-19T08:58:14;95844.09;;;8.76;54.72
24160;BME280;62385;41.594;23.808;2023-02-19T09:00:39;95841.06;;;8.71;54.66
24160;BME280;62385;41.594;23.808;2023-02-19T09:03:05;95849.91;;;8.98;55.64
24160;BME280;62385;41.594;23.808;2023-02-19T09:05:31;95838.47;;;9.15;55.01
24160;BME280;62385;41.594;23.808;2023-02-19T09:07:56;95841.91;;;9.33;54.65
24160;BME280;62385;41.594;23.808;2023-02-19T09:10:22;95834.09;;;9.06;54.78
24160;BME280;62385;41.594;23.808;2023-02-19T09:12:47;95832.78;;;9.27;53.39
24160;BME280;62385;41.594;23.808;2023-02-19T09:15:15;95818.63;;;9.45;54.19
24160;BME280;62385;41.594;23.808;2023-02-19T09:17:41;95814.88;;;9.47;54.14
24160;BME280;62385;41.594;23.808;2023-02-19T09:20:06;95821.19;;;9.54;53.20
24160;BME280;62385;41.594;23.808;2023-02-19T09:22:32;95812.59;;;9.86;52.67
24160;BME280;62385;41.594;23.808;2023-02-19T09:24:57;95815.94;;;9.88;52.06
24160;BME280;62385;41.594;23.808;2023-02-19T09:27:23;95814.28;;;9.95;52.12
24160;BME280;62385;41.594;23.808;2023-02-19T09:29:49;95798.81;;;10.16;51.97
24160;BME280;62385;41.594;23.808;2023-02-19T09:32:14;95794.91;;;10.37;51.52
24160;BME280;62385;41.594;23.808;2023-02-19T09:34:40;95794.28;;;10.09;52.48
24160;BME280;62385;41.594;23.808;2023-02-19T09:37:07;95789.84;;;10.59;50.49
24160;BME280;62385;41.594;23.808;2023-02-19T09:39:34;95788.53;;;10.72;51.06
24160;BME280;62385;41.594;23.808;2023-02-19T09:42:21;95778.41;;;10.75;50.41
24160;BME280;62385;41.594;23.808;2023-02-19T09:44:51;95765.47;;;11.04;49.65
24160;BME280;62385;41.594;23.808;2023-02-19T09:47:22;95763.13;;;10.93;50.95
24160;BME280;62385;41.594;23.808;2023-02-19T09:49:51;95759.81;;;11.07;49.72
24160;BME280;62385;41.594;23.808;2023-02-19T09:54:51;95759.13;;;11.22;50.11
24160;BME280;62385;41.594;23.808;2023-02-19T09:57:22;95747.72;;;11.68;49.32
24160;BME280;62385;41.594;23.808;2023-02-19T10:02:37;95741.06;;;11.88;48.32
24160;BME280;62385;41.594;23.808;2023-02-19T10:05:10;95740.22;;;12.19;48.13
24160;BME280;62385;41.594;23.808;2023-02-19T10:07:39;95735.56;;;12.21;47.92
24160;BME280;62385;41.594;23.808;2023-02-19T10:12:49;95719.88;;;12.26;47.74
24160;BME280;62385;41.594;23.808;2023-02-19T10:15:24;95713.19;;;12.38;47.21
24160;BME280;62385;41.594;23.808;2023-02-19T10:17:52;95712.31;;;13.06;44.75
24160;BME280;62385;41.594;23.808;2023-02-19T10:20:20;95701.28;;;13.46;43.20
24160;BME280;62385;41.594;23.808;2023-02-19T10:23:07;95690.22;;;13.93;41.83
24160;BME280;62385;41.594;23.808;2023-02-19T10:25:34;95681.00;;;13.96;42.45
24160;BME280;62385;41.594;23.808;2023-02-19T10:28:01;95673.81;;;14.11;41.52
24160;BME280;62385;41.594;23.808;2023-02-19T10:30:33;95669.97;;;13.84;40.01
24160;BME280;62385;41.594;23.808;2023-02-19T10:33:18;95666.97;;;14.08;40.11
24160;BME280;62385;41.594;23.808;2023-02-19T10:38:32;95659.97;;;13.86;40.24
24160;BME280;62385;41.594;23.808;2023-02-19T10:41:04;95651.84;;;13.79;41.31
24160;BME280;62385;41.594;23.808;2023-02-19T10:43:35;95650.00;;;14.30;41.23
24160;BME280;62385;41.594;23.808;2023-02-19T10:46:15;95644.81;;;14.29;41.68
24160;BME280;62385;41.594;23.808;2023-02-19T10:51:19;95624.84;;;14.40;41.31
24160;BME280;62385;41.594;23.808;2023-02-19T10:54:15;95621.66;;;14.51;40.98
24160;BME280;62385;41.594;23.808;2023-02-19T10:56:43;95618.72;;;14.67;42.01
24160;BME280;62385;41.594;23.808;2023-02-19T11:01:53;95601.03;;;15.21;40.04
24160;BME280;62385;41.594;23.808;2023-02-19T11:04:20;95595.13;;;15.33;40.19
24160;BME280;62385;41.594;23.808;2023-02-19T11:06:46;95596.59;;;15.35;39.48
24160;BME280;62385;41.594;23.808;2023-02-19T11:09:33;95590.75;;;15.53;38.93
24160;BME280;62385;41.594;23.808;2023-02-19T11:12:02;95586.44;;;15.58;39.45
24160;BME280;62385;41.594;23.808;2023-02-19T11:14:30;95585.09;;;15.82;39.05
24160;BME280;62385;41.594;23.808;2023-02-19T11:16:58;95578.09;;;15.81;38.88
24160;BME280;62385;41.594;23.808;2023-02-19T11:19:28;95581.25;;;15.50;39.88
24160;BME280;62385;41.594;23.808;2023-02-19T11:21:55;95575.97;;;15.63;39.47
24160;BME280;62385;41.594;23.808;2023-02-19T11:24:40;95572.69;;;15.68;38.24
24160;BME280;62385;41.594;23.808;2023-02-19T11:27:17;95566.75;;;15.79;37.33
24160;BME280;62385;41.594;23.808;2023-02-19T11:29:44;95562.78;;;15.62;37.94
24160;BME280;62385;41.594;23.808;2023-02-19T11:32:36;95561.63;;;15.84;37.91
24160;BME280;62385;41.594;23.808;2023-02-19T11:35:19;95550.47;;;15.74;37.18
24160;BME280;62385;41.594;23.808;2023-02-19T11:38:00;95545.41;;;15.99;37.35
24160;BME280;62385;41.594;23.808;2023-02-19T11:59:17;95504.44;;;16.38;37.51
24160;BME280;62385;41.594;23.808;2023-02-19T12:13:07;95469.38;;;16.79;34.41
24160;BME280;62385;41.594;23.808;2023-02-19T12:16:37;95466.47;;;17.00;35.59
24160;BME280;62385;41.594;23.808;2023-02-19T12:27:02;95454.81;;;17.26;35.56
24160;BME280;62385;41.594;23.808;2023-02-19T12:29:37;95451.69;;;17.29;34.73
24160;BME280;62385;41.594;23.808;2023-02-19T12:32:23;95439.75;;;17.25;34.79
24160;BME280;62385;41.594;23.808;2023-02-19T12:43:17;95428.16;;;17.75;32.30
24160;BME280;62385;41.594;23.808;2023-02-19T12:45:48;95412.84;;;18.07;31.91
24160;BME280;62385;41.594;23.808;2023-02-19T12:54:04;95406.59;;;18.38;31.27
24160;BME280;62385;41.594;23.808;2023-02-19T12:56:33;95401.81;;;18.40;31.82
24160;BME280;62385;41.594;23.808;2023-02-19T13:01:44;95400.34;;;18.19;31.36
24160;BME280;62385;41.594;23.808;2023-02-19T13:04:39;95384.72;;;18.34;30.95
24160;BME280;62385;41.594;23.808;2023-02-19T13:07:30;95387.44;;;18.53;31.03
24160;BME280;62385;41.594;23.808;2023-02-19T13:10:29;95386.22;;;18.49;30.11
24160;BME280;62385;41.594;23.808;2023-02-19T13:13:04;95377.25;;;17.87;31.30
24160;BME280;62385;41.594;23.808;2023-02-19T13:18:02;95372.91;;;17.86;30.89
24160;BME280;62385;41.594;23.808;2023-02-19T13:20:38;95367.00;;;18.70;29.64
24160;BME280;62385;41.594;23.808;2023-02-19T13:23:25;95364.53;;;18.43;30.25
24160;BME280;62385;41.594;23.808;2023-02-19T13:26:18;95358.50;;;18.55;29.71
24160;BME280;62385;41.594;23.808;2023-02-19T13:37:07;95334.13;;;19.04;29.08
24160;BME280;62385;41.594;23.808;2023-02-19T13:39:33;95341.44;;;19.27;29.05
24160;BME280;62385;41.594;23.808;2023-02-19T13:42:00;95328.91;;;18.73;30.93
24160;BME280;62385;41.594;23.808;2023-02-19T13:44:33;95327.53;;;18.64;30.95
24160;BME280;62385;41.594;23.808;2023-02-19T13:47:00;95328.44;;;18.94;29.70
24160;BME280;62385;41.594;23.808;2023-02-19T13:52:00;95331.03;;;19.30;29.62
24160;BME280;62385;41.594;23.808;2023-02-19T13:54:29;95327.94;;;19.15;29.83
24160;BME280;62385;41.594;23.808;2023-02-19T13:59:50;95322.03;;;19.25;27.83
24160;BME280;62385;41.594;23.808;2023-02-19T14:20:01;95303.50;;;19.47;27.47
24160;BME280;62385;41.594;23.808;2023-02-19T14:25:20;95296.75;;;19.56;27.71
24160;BME280;62385;41.594;23.808;2023-02-19T14:27:50;95292.72;;;19.47;29.01
24160;BME280;62385;41.594;23.808;2023-02-19T14:30:17;95294.69;;;19.40;28.41
24160;BME280;62385;41.594;23.808;2023-02-19T14:32:43;95300.72;;;19.23;30.11
24160;BME280;62385;41.594;23.808;2023-02-19T14:35:23;95290.34;;;19.38;29.64
24160;BME280;62385;41.594;23.808;2023-02-19T14:37:53;95296.00;;;18.89;30.30
24160;BME280;62385;41.594;23.808;2023-02-19T14:40:23;95292.56;;;18.09;30.06
24160;BME280;62385;41.594;23.808;2023-02-19T14:42:53;95294.16;;;17.36;30.93
24160;BME280;62385;41.594;23.808;2023-02-19T14:45:19;95292.50;;;17.10;31.78
24160;BME280;62385;41.594;23.808;2023-02-19T14:47:47;95292.25;;;17.12;31.87
24160;BME280;62385;41.594;23.808;2023-02-19T14:50:34;95308.66;;;16.97;32.22
24160;BME280;62385;41.594;23.808;2023-02-19T14:53:03;95290.41;;;17.12;32.48
24160;BME280;62385;41.594;23.808;2023-02-19T14:55:31;95282.06;;;17.27;32.19
24160;BME280;62385;41.594;23.808;2023-02-19T14:58:00;95287.03;;;18.22;31.42
24160;BME280;62385;41.594;23.808;2023-02-19T15:00:32;95285.38;;;18.03;30.93
24160;BME280;62385;41.594;23.808;2023-02-19T15:02:58;95284.72;;;18.44;30.18
24160;BME280;62385;41.594;23.808;2023-02-19T15:05:27;95287.28;;;18.21;31.00
24160;BME280;62385;41.594;23.808;2023-02-19T15:07:54;95294.50;;;17.46;31.55
24160;BME280;62385;41.594;23.808;2023-02-19T15:10:21;95295.59;;;17.70;30.83
24160;BME280;62385;41.594;23.808;2023-02-19T15:13:09;95297.84;;;17.10;30.19
24160;BME280;62385;41.594;23.808;2023-02-19T15:15:45;95287.94;;;17.11;30.08
24160;BME280;62385;41.594;23.808;2023-02-19T15:18:19;95283.31;;;17.24;29.71
24160;BME280;62385;41.594;23.808;2023-02-19T15:20:46;95292.69;;;17.40;29.98
24160;BME280;62385;41.594;23.808;2023-02-19T15:23:21;95302.97;;;17.18;30.14
24160;BME280;62385;41.594;23.808;2023-02-19T15:25:49;95298.81;;;17.22;29.89
24160;BME280;62385;41.594;23.808;2023-02-19T15:31:13;95303.47;;;17.33;29.36
24160;BME280;62385;41.594;23.808;2023-02-19T15:33:47;95310.69;;;17.33;30.02
24160;BME280;62385;41.594;23.808;2023-02-19T15:36:16;95299.22;;;16.81;31.22
24160;BME280;62385;41.594;23.808;2023-02-19T15:38:44;95307.44;;;16.86;31.21